Time;durP1;ratioP1;P1;durP2;ratioP2;P2;SDS_P1;SDS_P2;PMS_P1;PMS_P2;Temp;Humidity;BMP_temperature;BMP_pressure;BME280_temperature;BME280_humidity;BME280_pressure;Samples;Min_cycle;Max_cycle;Signal;HPM_P1;HPM_P2
2023/10/03 00:00:15;;;;;;;15.70;11.40;;;12.40;99.90;;;;;;4999494;28;20478;-65
2023/10/03 00:02:43;;;;;;;20.07;12.60;;;12.40;99.90;;;;;;5004292;28;20945;-66
2023/10/03 00:05:11;;;;;;;20.43;12.70;;;12.40;99.90;;;;;;5007856;28;20482;-66
2023/10/03 00:07:38;;;;;;;15.20;10.47;;;12.30;99.90;;;;;;4997720;28;20451;-65
2023/10/03 00:10:06;;;;;;;19.30;13.33;;;12.30;99.90;;;;;;5009340;28;20447;-66
2023/10/03 00:12:33;;;;;;;23.47;12.73;;;12.30;99.90;;;;;;5002477;28;20478;-65
2023/10/03 00:15:00;;;;;;;19.80;13.57;;;12.30;99.90;;;;;;5012789;28;20438;-65
2023/10/03 00:17:27;;;;;;;21.00;13.73;;;12.30;99.90;;;;;;4997938;28;21024;-65
2023/10/03 00:19:55;;;;;;;18.00;12.80;;;12.30;99.90;;;;;;5010420;28;20442;-65
2023/10/03 00:22:22;;;;;;;17.10;12.77;;;12.30;99.90;;;;;;5001089;28;20488;-65
2023/10/03 00:24:49;;;;;;;20.27;13.67;;;12.20;99.90;;;;;;5013088;28;20482;-65
2023/10/03 00:27:16;;;;;;;17.73;13.17;;;12.20;99.90;;;;;;4999282;28;20444;-65
2023/10/03 00:29:44;;;;;;;19.70;12.43;;;12.20;99.90;;;;;;5009967;28;20703;-65
2023/10/03 00:32:11;;;;;;;19.87;13.03;;;12.10;99.90;;;;;;4999629;28;20440;-65
2023/10/03 00:34:41;;;;;;;22.10;12.83;;;12.10;99.90;;;;;;5004036;28;20545;-65
2023/10/03 00:37:11;;;;;;;21.30;13.50;;;12.10;99.90;;;;;;5006820;28;21013;-65
2023/10/03 00:39:38;;;;;;;17.07;12.90;;;12.10;99.90;;;;;;4997127;28;20822;-66
2023/10/03 00:42:05;;;;;;;16.50;11.17;;;12.10;99.90;;;;;;5008958;28;20534;-66
2023/10/03 00:44:32;;;;;;;17.57;12.27;;;12.10;99.90;;;;;;5001549;28;20492;-65
2023/10/03 00:46:59;;;;;;;18.63;11.93;;;12.10;99.90;;;;;;5013410;28;20816;-65
2023/10/03 00:49:28;;;;;;;18.23;13.67;;;12.10;99.90;;;;;;4998058;28;20442;-65
2023/10/03 00:51:57;;;;;;;17.97;12.50;;;12.10;99.90;;;;;;5009874;28;20454;-65
2023/10/03 00:54:27;;;;;;;20.47;11.73;;;12.10;99.90;;;;;;4999894;28;20845;-65
2023/10/03 00:56:55;;;;;;;15.77;12.07;;;12.00;99.90;;;;;;5013751;28;20446;-65
2023/10/03 00:59:22;;;;;;;13.67;12.20;;;12.00;99.90;;;;;;5013783;28;20449;-65
2023/10/03 01:01:49;;;;;;;22.87;13.67;;;12.00;99.90;;;;;;5013732;28;20807;-65
2023/10/03 01:04:19;;;;;;;21.00;12.57;;;12.00;99.90;;;;;;5013115;28;20499;-65
2023/10/03 01:06:47;;;;;;;21.67;12.33;;;12.00;99.90;;;;;;5013782;28;20461;-66
2023/10/03 01:09:20;;;;;;;19.40;10.60;;;11.90;99.90;;;;;;5013432;28;20461;-65
2023/10/03 01:11:51;;;;;;;16.63;11.90;;;11.90;99.90;;;;;;5013773;28;20442;-65
2023/10/03 01:14:18;;;;;;;21.93;10.70;;;11.90;99.90;;;;;;5013109;28;20516;-65
2023/10/03 01:16:45;;;;;;;16.03;12.90;;;11.90;99.90;;;;;;5013237;28;20944;-65
2023/10/03 01:19:24;;;;;;;19.27;13.40;;;11.90;99.90;;;;;;5012879;28;20544;-65
2023/10/03 01:21:51;;;;;;;21.27;13.10;;;11.90;99.90;;;;;;5013180;28;20936;-65
2023/10/03 01:24:24;;;;;;;17.77;11.23;;;11.90;99.90;;;;;;5012909;28;20482;-65
2023/10/03 01:26:52;;;;;;;20.90;13.90;;;11.90;99.90;;;;;;5013075;28;20836;-66
2023/10/03 01:29:19;;;;;;;20.37;13.20;;;11.90;99.90;;;;;;5013137;28;20545;-65
2023/10/03 01:31:48;;;;;;;19.77;12.97;;;11.90;99.90;;;;;;5013176;28;20877;-65
2023/10/03 01:34:15;;;;;;;18.80;14.03;;;11.90;99.90;;;;;;5012793;28;20531;-65
2023/10/03 01:36:47;;;;;;;17.80;12.17;;;11.80;99.90;;;;;;5013020;28;20449;-65
2023/10/03 01:39:14;;;;;;;20.90;13.37;;;11.90;99.90;;;;;;5013152;28;20481;-65
2023/10/03 01:41:43;;;;;;;24.77;14.87;;;11.80;99.90;;;;;;5012833;28;20536;-65
2023/10/03 01:44:10;;;;;;;18.47;13.03;;;11.80;99.90;;;;;;5012273;28;20462;-65
2023/10/03 01:46:38;;;;;;;21.23;13.50;;;11.80;99.90;;;;;;5012692;28;20532;-65
2023/10/03 01:49:06;;;;;;;20.87;14.00;;;11.80;99.90;;;;;;5012883;28;20862;-65
2023/10/03 01:51:33;;;;;;;25.00;15.40;;;11.70;99.90;;;;;;5012605;28;20532;-65
2023/10/03 01:54:00;;;;;;;22.80;15.20;;;11.70;99.90;;;;;;5012258;28;20505;-65
2023/10/03 01:56:29;;;;;;;21.63;15.57;;;11.70;99.90;;;;;;5012471;28;20443;-65
2023/10/03 01:58:57;;;;;;;23.13;14.40;;;11.70;99.90;;;;;;5012420;28;20923;-65
2023/10/03 02:01:24;;;;;;;19.43;14.67;;;11.70;99.90;;;;;;5012431;28;20453;-65
2023/10/03 02:03:52;;;;;;;25.60;14.23;;;11.60;99.90;;;;;;5012074;28;20489;-65
2023/10/03 02:06:20;;;;;;;20.47;13.47;;;11.60;99.90;;;;;;5012330;28;20488;-65
2023/10/03 02:08:48;;;;;;;17.63;13.30;;;11.60;99.90;;;;;;5012208;28;20507;-65
2023/10/03 02:11:16;;;;;;;22.77;15.63;;;11.60;99.90;;;;;;5018590;22;20499;-63
2023/10/03 02:13:42;;;;;;;20.37;14.40;;;11.60;99.90;;;;;;4991794;28;20533;-62
2023/10/03 02:16:12;;;;;;;22.13;14.83;;;11.60;99.90;;;;;;4992616;28;21037;-62
2023/10/03 02:18:40;;;;;;;20.33;12.53;;;11.50;99.90;;;;;;4992710;28;20483;-63
2023/10/03 02:21:08;;;;;;;20.07;14.73;;;11.50;99.90;;;;;;4992466;28;20463;-63
2023/10/03 02:23:35;;;;;;;22.23;15.27;;;11.50;99.90;;;;;;4992257;28;20508;-63
2023/10/03 02:26:10;;;;;;;20.67;14.07;;;11.50;99.90;;;;;;4992105;28;20500;-63
2023/10/03 02:28:38;;;;;;;22.33;14.83;;;11.50;99.90;;;;;;4992565;28;20455;-63
2023/10/03 02:31:07;;;;;;;22.43;14.07;;;11.40;99.90;;;;;;4992729;28;20510;-63
2023/10/03 02:33:37;;;;;;;18.57;12.57;;;11.40;99.90;;;;;;4992116;28;20545;-62
2023/10/03 02:36:05;;;;;;;17.87;13.57;;;11.40;99.90;;;;;;4992238;28;20989;-62
2023/10/03 02:38:36;;;;;;;19.60;12.90;;;11.40;99.90;;;;;;4991904;28;20450;-62
2023/10/03 02:41:04;;;;;;;18.07;15.67;;;11.30;99.90;;;;;;4992155;28;20470;-62
2023/10/03 02:43:34;;;;;;;20.17;14.00;;;11.30;99.90;;;;;;4992030;28;20447;-63
2023/10/03 02:46:04;;;;;;;24.40;13.40;;;11.30;99.90;;;;;;4992183;28;20486;-63
2023/10/03 02:48:31;;;;;;;21.33;13.70;;;11.20;99.90;;;;;;4992414;28;20481;-62
2023/10/03 02:51:01;;;;;;;21.27;14.07;;;11.20;99.90;;;;;;4992067;28;20554;-62
2023/10/03 02:53:28;;;;;;;24.83;14.90;;;11.20;99.90;;;;;;4992053;28;20454;-63
2023/10/03 02:55:55;;;;;;;17.10;13.17;;;11.20;99.90;;;;;;4992108;28;20960;-62
2023/10/03 02:58:22;;;;;;;21.90;14.33;;;11.20;99.90;;;;;;4992177;28;20454;-62
2023/10/03 03:00:53;;;;;;;20.70;14.80;;;11.10;99.90;;;;;;4992078;28;20474;-62
2023/10/03 03:03:20;;;;;;;22.20;13.00;;;11.10;99.90;;;;;;4991125;28;20548;-63
2023/10/03 03:05:49;;;;;;;24.30;13.97;;;11.20;99.90;;;;;;4992358;28;20490;-63
2023/10/03 03:08:25;;;;;;;22.03;15.53;;;11.10;99.90;;;;;;4991915;28;20488;-63
2023/10/03 03:10:55;;;;;;;18.73;15.47;;;11.10;99.90;;;;;;4991835;28;21098;-62
2023/10/03 03:13:23;;;;;;;22.83;15.20;;;11.10;99.90;;;;;;4990612;28;20831;-62
2023/10/03 03:15:53;;;;;;;25.83;15.07;;;11.00;99.90;;;;;;4983720;28;20439;-63
2023/10/03 03:18:21;;;;;;;24.70;15.40;;;11.00;99.90;;;;;;4988603;28;20948;-62
2023/10/03 03:20:57;;;;;;;20.83;12.53;;;11.00;99.90;;;;;;4992055;28;20558;-62
2023/10/03 03:23:27;;;;;;;28.30;15.97;;;10.90;99.90;;;;;;4991824;28;20478;-62
2023/10/03 03:26:09;;;;;;;24.70;14.93;;;10.90;99.90;;;;;;4992063;28;20549;-62
2023/10/03 03:28:36;;;;;;;31.87;16.27;;;11.00;99.90;;;;;;4992160;28;20453;-62
2023/10/03 03:31:03;;;;;;;21.83;15.27;;;10.90;99.90;;;;;;4991956;28;20485;-62
2023/10/03 03:33:31;;;;;;;22.67;14.13;;;10.90;99.90;;;;;;4991837;28;20516;-63
2023/10/03 03:35:58;;;;;;;25.33;16.70;;;10.80;99.90;;;;;;4991799;28;20456;-62
2023/10/03 03:38:26;;;;;;;22.10;16.23;;;10.80;99.90;;;;;;4991859;28;20952;-62
2023/10/03 03:40:59;;;;;;;21.50;16.00;;;10.80;99.90;;;;;;4991585;28;20476;-63
2023/10/03 03:43:26;;;;;;;27.73;14.23;;;10.80;99.90;;;;;;4991320;28;20496;-62
2023/10/03 03:45:53;;;;;;;28.90;16.00;;;10.80;99.90;;;;;;4991763;28;20486;-63
2023/10/03 03:48:21;;;;;;;25.03;16.00;;;10.80;99.90;;;;;;4991805;28;20450;-62
2023/10/03 03:50:50;;;;;;;25.60;14.70;;;10.80;99.90;;;;;;4994192;28;20467;-62
2023/10/03 03:53:18;;;;;;;26.70;18.00;;;10.70;99.90;;;;;;4995058;28;20457;-62
2023/10/03 03:55:47;;;;;;;28.87;17.33;;;10.80;99.90;;;;;;4995385;28;20683;-63
2023/10/03 03:58:18;;;;;;;34.80;18.80;;;10.80;99.90;;;;;;4994343;28;20452;-62
2023/10/03 04:00:50;;;;;;;24.53;17.10;;;10.80;99.90;;;;;;4982932;28;20522;-62
2023/10/03 04:03:18;;;;;;;26.17;14.67;;;10.80;99.90;;;;;;4994608;28;20446;-62
2023/10/03 04:05:46;;;;;;;23.47;17.20;;;10.80;99.90;;;;;;4995013;28;20531;-62
2023/10/03 04:08:13;;;;;;;23.20;13.67;;;10.80;99.90;;;;;;4995343;28;20462;-63
2023/10/03 04:10:40;;;;;;;31.40;18.03;;;10.80;99.90;;;;;;4995019;28;20485;-62
2023/10/03 04:13:09;;;;;;;23.87;14.27;;;10.80;99.90;;;;;;4994939;28;20457;-62
2023/10/03 04:15:37;;;;;;;31.27;17.07;;;10.80;99.90;;;;;;4994801;28;20573;-62
2023/10/03 04:18:05;;;;;;;26.07;15.57;;;10.80;99.90;;;;;;4994542;28;20943;-62
2023/10/03 04:20:32;;;;;;;30.07;16.83;;;10.80;99.90;;;;;;4995000;28;20505;-62
2023/10/03 04:22:59;;;;;;;25.77;15.27;;;10.80;99.90;;;;;;4994844;28;20457;-63
2023/10/03 04:25:27;;;;;;;25.83;14.93;;;10.80;99.90;;;;;;4994857;28;20490;-62
2023/10/03 04:27:56;;;;;;;20.73;13.60;;;10.80;99.90;;;;;;4994920;28;20486;-63
2023/10/03 04:30:25;;;;;;;22.13;14.30;;;10.80;99.90;;;;;;4994971;28;20568;-62
2023/10/03 04:32:53;;;;;;;23.10;13.97;;;10.80;99.90;;;;;;4994704;28;20458;-62
2023/10/03 04:35:20;;;;;;;23.23;16.40;;;10.80;99.90;;;;;;4994361;28;20539;-62
2023/10/03 04:37:51;;;;;;;21.90;15.70;;;10.80;99.90;;;;;;4994604;28;20466;-62
2023/10/03 04:40:22;;;;;;;20.27;13.47;;;10.80;99.90;;;;;;4994466;28;20466;-63
2023/10/03 04:42:49;;;;;;;20.73;14.50;;;10.80;99.90;;;;;;4994440;28;20960;-63
2023/10/03 04:45:19;;;;;;;23.80;13.90;;;10.80;99.90;;;;;;4994103;28;20516;-63
2023/10/03 04:47:48;;;;;;;24.77;13.20;;;10.80;99.90;;;;;;4994470;28;20506;-63
2023/10/03 04:50:18;;;;;;;22.53;14.10;;;10.80;99.90;;;;;;4994240;28;21072;-63
2023/10/03 04:52:48;;;;;;;21.73;14.03;;;10.80;99.90;;;;;;4994242;28;20451;-63
2023/10/03 04:55:16;;;;;;;22.33;15.10;;;10.90;99.90;;;;;;4994032;28;20454;-62
2023/10/03 04:57:44;;;;;;;17.87;13.60;;;10.90;99.90;;;;;;4994255;28;20833;-63
2023/10/03 05:00:15;;;;;;;26.47;15.37;;;10.80;99.90;;;;;;4994303;28;20900;-62
2023/10/03 05:02:47;;;;;;;24.07;13.30;;;10.90;99.90;;;;;;4993709;28;20823;-62
2023/10/03 05:05:18;;;;;;;22.47;13.30;;;10.80;99.90;;;;;;4993780;28;20493;-63
2023/10/03 05:07:45;;;;;;;20.70;13.30;;;10.80;99.90;;;;;;4994063;28;20455;-62
2023/10/03 05:10:12;;;;;;;24.40;15.83;;;10.80;99.90;;;;;;4993896;28;20573;-62
2023/10/03 05:12:39;;;;;;;24.67;13.63;;;10.80;99.90;;;;;;4994446;28;20545;-63
2023/10/03 05:15:08;;;;;;;22.00;16.37;;;10.80;99.90;;;;;;4993768;28;21096;-62
2023/10/03 05:17:35;;;;;;;23.87;15.23;;;10.80;99.90;;;;;;4993992;28;20998;-63
2023/10/03 05:20:02;;;;;;;15.60;10.97;;;10.80;99.90;;;;;;4993829;28;20475;-62
2023/10/03 05:22:32;;;;;;;16.73;11.83;;;10.80;99.90;;;;;;4993728;28;20524;-62
2023/10/03 05:25:00;;;;;;;22.63;15.20;;;10.70;99.90;;;;;;4993598;28;20455;-62
2023/10/03 05:27:28;;;;;;;19.33;11.90;;;10.70;99.90;;;;;;4993735;28;21103;-63
2023/10/03 05:29:57;;;;;;;16.63;12.57;;;10.80;99.90;;;;;;4993764;28;20870;-63
2023/10/03 05:32:26;;;;;;;19.97;12.80;;;10.80;99.90;;;;;;4993591;28;20536;-63
2023/10/03 05:34:53;;;;;;;21.90;13.87;;;10.80;99.90;;;;;;4993185;28;21048;-63
2023/10/03 05:37:20;;;;;;;24.43;15.50;;;10.90;99.90;;;;;;4994091;28;20456;-63
2023/10/03 05:39:48;;;;;;;18.70;12.23;;;10.90;99.90;;;;;;4993433;28;20915;-62
2023/10/03 05:42:17;;;;;;;19.70;12.60;;;10.90;99.90;;;;;;4993497;28;20867;-62
2023/10/03 05:44:44;;;;;;;23.80;14.77;;;10.90;99.90;;;;;;4993269;28;20466;-63
2023/10/03 05:47:11;;;;;;;21.00;13.10;;;10.90;99.90;;;;;;4993163;28;20478;-63
2023/10/03 05:49:38;;;;;;;17.83;13.00;;;11.00;99.90;;;;;;4993138;28;20589;-63
2023/10/03 05:52:06;;;;;;;16.47;12.17;;;11.00;99.90;;;;;;4993169;28;20533;-63
2023/10/03 05:54:34;;;;;;;18.50;13.67;;;11.00;99.90;;;;;;4993287;28;20466;-63
2023/10/03 05:57:02;;;;;;;20.80;12.20;;;11.00;99.90;;;;;;4993254;28;20466;-63
2023/10/03 05:59:29;;;;;;;20.47;14.50;;;11.10;99.90;;;;;;4992978;28;20454;-62
2023/10/03 06:01:57;;;;;;;22.20;13.70;;;11.10;99.90;;;;;;4993330;28;20446;-63
2023/10/03 06:04:24;;;;;;;19.37;13.37;;;11.10;99.90;;;;;;4993299;28;20446;-63
2023/10/03 06:06:51;;;;;;;18.80;12.57;;;11.10;99.90;;;;;;4992774;28;20489;-63
2023/10/03 06:09:18;;;;;;;17.30;13.10;;;11.10;99.90;;;;;;4992867;28;20543;-63
2023/10/03 06:11:45;;;;;;;17.70;12.60;;;11.10;99.90;;;;;;4992926;28;20798;-63
2023/10/03 06:14:14;;;;;;;21.00;13.50;;;11.20;99.90;;;;;;4991642;28;20497;-62
2023/10/03 06:16:41;;;;;;;18.83;14.33;;;11.20;99.90;;;;;;4992846;28;20469;-63
2023/10/03 06:19:08;;;;;;;16.03;12.73;;;11.20;99.90;;;;;;4992684;28;20489;-63
2023/10/03 06:21:35;;;;;;;17.57;12.70;;;11.20;99.90;;;;;;4993051;28;20530;-63
2023/10/03 06:24:02;;;;;;;15.90;12.60;;;11.20;99.90;;;;;;4992460;28;20450;-63
2023/10/03 06:26:29;;;;;;;17.97;13.40;;;11.20;99.90;;;;;;4992682;28;20497;-63
2023/10/03 06:28:56;;;;;;;15.50;10.30;;;11.20;99.90;;;;;;4992899;28;20447;-63
2023/10/03 06:31:25;;;;;;;19.70;13.00;;;11.20;99.90;;;;;;4992570;28;20474;-63
2023/10/03 06:33:51;;;;;;;18.83;12.97;;;11.20;99.90;;;;;;4992714;28;20450;-63
2023/10/03 06:36:18;;;;;;;19.87;11.90;;;11.30;99.90;;;;;;4992621;28;20454;-63
2023/10/03 06:38:45;;;;;;;19.87;12.43;;;11.30;99.90;;;;;;4992559;28;20965;-63
2023/10/03 06:41:19;;;;;;;23.30;13.00;;;11.30;99.90;;;;;;4992514;28;20466;-63
2023/10/03 06:43:45;;;;;;;14.87;13.30;;;11.40;99.90;;;;;;4992250;28;20541;-63
2023/10/03 06:46:12;;;;;;;19.67;14.80;;;11.40;99.90;;;;;;4992408;28;20832;-63
2023/10/03 06:48:41;;;;;;;21.87;17.30;;;11.40;99.90;;;;;;4992479;28;20804;-63
2023/10/03 06:51:09;;;;;;;20.07;14.67;;;11.50;99.90;;;;;;4992100;28;20473;-63
2023/10/03 06:53:36;;;;;;;24.40;13.70;;;11.60;99.90;;;;;;4992031;28;20457;-63
2023/10/03 06:56:03;;;;;;;20.83;14.70;;;11.70;99.90;;;;;;4992167;28;20957;-63
2023/10/03 06:58:30;;;;;;;19.80;13.60;;;11.70;99.90;;;;;;4992163;28;20817;-63
2023/10/03 07:00:58;;;;;;;22.97;14.87;;;11.80;99.90;;;;;;4992114;28;20501;-63
2023/10/03 07:03:24;;;;;;;23.07;14.50;;;11.90;99.90;;;;;;4991893;28;20533;-63
2023/10/03 07:05:54;;;;;;;20.57;15.17;;;12.00;99.90;;;;;;4992072;28;20533;-63
2023/10/03 07:08:21;;;;;;;23.47;16.10;;;12.10;99.90;;;;;;4991745;28;20459;-63
2023/10/03 07:10:47;;;;;;;22.30;13.97;;;12.20;99.90;;;;;;4991633;28;20919;-63
2023/10/03 07:13:14;;;;;;;22.53;17.07;;;12.30;99.90;;;;;;4991326;28;20545;-63
2023/10/03 07:15:42;;;;;;;17.00;14.80;;;12.40;99.90;;;;;;4992175;28;20453;-63
2023/10/03 07:18:09;;;;;;;28.63;17.23;;;12.60;99.90;;;;;;4991900;28;21020;-62
2023/10/03 07:20:36;;;;;;;24.57;14.87;;;12.70;99.90;;;;;;4992064;28;20831;-63
2023/10/03 07:23:05;;;;;;;23.10;16.50;;;12.80;99.90;;;;;;4991882;28;20879;-62
2023/10/03 07:25:32;;;;;;;19.40;14.33;;;12.90;99.90;;;;;;4992241;28;20455;-63
2023/10/03 07:27:59;;;;;;;18.87;13.07;;;13.10;99.90;;;;;;4994633;28;20579;-63
2023/10/03 07:30:26;;;;;;;20.40;15.93;;;13.30;99.90;;;;;;4995133;28;20552;-62
2023/10/03 07:32:53;;;;;;;19.00;14.57;;;13.60;99.90;;;;;;4995355;28;20489;-62
2023/10/03 07:35:21;;;;;;;20.87;14.50;;;13.90;99.90;;;;;;4995188;28;20458;-63
2023/10/03 07:37:50;;;;;;;19.53;13.90;;;14.00;99.90;;;;;;4995036;28;20496;-63
2023/10/03 07:40:21;;;;;;;21.87;14.23;;;14.30;99.90;;;;;;4995369;28;20990;-63
2023/10/03 07:42:49;;;;;;;17.27;12.50;;;14.50;99.90;;;;;;4995331;28;20457;-63
2023/10/03 07:45:17;;;;;;;17.20;12.10;;;14.80;99.90;;;;;;4995029;28;20450;-63
2023/10/03 07:47:44;;;;;;;12.77;11.27;;;15.20;99.90;;;;;;4995190;28;20849;-63
2023/10/03 07:50:13;;;;;;;14.57;11.50;;;15.70;99.90;;;;;;4995209;28;20473;-63
2023/10/03 07:52:41;;;;;;;16.57;11.73;;;16.20;99.90;;;;;;4994920;28;20454;-64
2023/10/03 07:55:09;;;;;;;13.80;10.90;;;16.70;99.90;;;;;;4995071;28;20456;-63
2023/10/03 07:57:41;;;;;;;17.73;11.43;;;17.10;99.90;;;;;;4994887;28;20456;-63
2023/10/03 08:00:19;;;;;;;12.30;9.60;;;17.50;99.90;;;;;;4995082;28;20566;-63
2023/10/03 08:02:46;;;;;;;17.97;10.57;;;17.90;99.90;;;;;;4994855;28;20482;-63
2023/10/03 08:05:13;;;;;;;11.90;10.10;;;18.30;99.90;;;;;;4995036;28;20541;-63
2023/10/03 08:07:42;;;;;;;11.07;9.20;;;18.60;99.90;;;;;;4994719;28;20570;-64
2023/10/03 08:10:09;;;;;;;13.87;8.87;;;18.90;99.90;;;;;;4994776;28;20838;-63
2023/10/03 08:12:38;;;;;;;10.93;9.83;;;19.10;99.90;;;;;;4994590;28;20964;-64
2023/10/03 08:15:16;;;;;;;16.13;9.87;;;19.50;99.90;;;;;;5002537;22;20523;-66
2023/10/03 08:17:45;;;;;;;8.67;7.77;;;19.80;99.90;;;;;;4974756;28;20457;-66
2023/10/03 08:20:14;;;;;;;11.60;9.27;;;20.10;99.90;;;;;;4975193;28;21213;-65
2023/10/03 08:22:42;;;;;;;9.83;8.83;;;20.40;99.90;;;;;;4975145;28;20574;-66
2023/10/03 08:25:10;;;;;;;12.47;11.17;;;20.70;99.90;;;;;;4974941;28;20972;-66
2023/10/03 08:27:38;;;;;;;10.87;8.97;;;20.80;99.90;;;;;;4974970;28;20581;-65
2023/10/03 08:30:06;;;;;;;10.13;8.37;;;21.10;99.90;;;;;;4974940;28;20550;-66
2023/10/03 08:32:39;;;;;;;10.43;9.43;;;21.30;99.90;;;;;;4975253;28;20446;-65
2023/10/03 08:35:08;;;;;;;13.10;9.90;;;21.50;99.90;;;;;;4974901;28;20474;-66
2023/10/03 08:37:38;;;;;;;12.17;8.20;;;21.70;99.90;;;;;;4973971;28;20451;-65
2023/10/03 08:40:19;;;;;;;11.23;8.40;;;21.90;99.90;;;;;;4974970;28;20849;-65
2023/10/03 08:42:52;;;;;;;9.60;8.60;;;22.10;99.90;;;;;;4974839;28;20486;-65
2023/10/03 08:45:23;;;;;;;12.17;8.37;;;22.30;99.40;;;;;;4974791;28;20477;-65
2023/10/03 08:47:53;;;;;;;12.47;7.77;;;22.50;99.90;;;;;;4974773;28;20954;-66
2023/10/03 08:50:33;;;;;;;10.03;8.47;;;22.60;99.00;;;;;;4974779;28;20542;-66
2023/10/03 08:53:12;;;;;;;10.53;8.37;;;22.70;99.10;;;;;;4974660;28;20856;-66
2023/10/03 08:55:43;;;;;;;11.23;9.40;;;22.80;98.60;;;;;;4974549;28;20448;-67
2023/10/03 08:58:14;;;;;;;10.80;9.27;;;22.90;98.80;;;;;;4974667;28;20444;-66
2023/10/03 09:00:44;;;;;;;10.43;8.40;;;23.00;98.60;;;;;;4974621;28;20452;-64
2023/10/03 09:03:14;;;;;;;9.90;8.40;;;23.10;97.80;;;;;;4974065;28;20448;-65
2023/10/03 09:05:41;;;;;;;8.40;7.03;;;23.10;98.20;;;;;;4974312;28;20838;-66
2023/10/03 09:08:09;;;;;;;8.87;7.97;;;23.20;98.10;;;;;;4973668;28;20519;-65
2023/10/03 09:10:50;;;;;;;11.90;8.40;;;23.30;97.50;;;;;;4969176;28;20546;-65
2023/10/03 09:13:24;;;;;;;11.03;8.40;;;23.40;98.00;;;;;;4968367;28;20476;-64
2023/10/03 09:15:59;;;;;;;8.40;7.30;;;23.60;98.20;;;;;;4974066;28;20460;-64
2023/10/03 09:18:27;;;;;;;9.57;7.90;;;23.70;97.50;;;;;;4974266;28;20447;-66
2023/10/03 09:20:59;;;;;;;9.63;8.70;;;23.90;96.90;;;;;;4974379;28;20457;-65
2023/10/03 09:23:27;;;;;;;8.07;7.27;;;23.90;96.40;;;;;;4973732;28;20532;-66
2023/10/03 09:25:55;;;;;;;8.57;7.53;;;23.90;96.20;;;;;;4974058;28;20448;-65
2023/10/03 09:28:35;;;;;;;11.67;9.10;;;23.90;96.20;;;;;;4973640;28;20902;-65
2023/10/03 09:31:08;;;;;;;9.80;8.53;;;24.00;96.50;;;;;;4974027;28;20456;-65
2023/10/03 09:33:38;;;;;;;10.30;6.97;;;24.00;96.00;;;;;;4973333;28;20479;-66
2023/10/03 09:36:06;;;;;;;11.03;9.80;;;24.10;95.40;;;;;;4974121;28;21029;-65
2023/10/03 09:38:44;;;;;;;12.10;7.40;;;24.20;96.30;;;;;;4973710;28;20534;-65
2023/10/03 09:41:17;;;;;;;9.83;6.90;;;24.30;95.00;;;;;;4973589;28;20532;-65
2023/10/03 09:43:49;;;;;;;8.60;7.13;;;24.30;95.20;;;;;;4973205;28;21049;-65
2023/10/03 09:46:23;;;;;;;7.03;6.43;;;24.40;95.00;;;;;;4973498;28;20456;-65
2023/10/03 09:48:53;;;;;;;10.90;8.30;;;24.50;94.90;;;;;;4973105;28;20493;-65
2023/10/03 09:51:45;;;;;;;7.23;6.63;;;24.60;95.30;;;;;;4970533;28;20449;-65
2023/10/03 09:54:24;;;;;;;7.90;7.10;;;24.70;94.90;;;;;;4972674;28;20504;-65
2023/10/03 09:56:51;;;;;;;7.10;6.40;;;24.70;94.60;;;;;;4957139;28;20509;-65
2023/10/03 09:59:20;;;;;;;7.73;6.43;;;24.80;94.60;;;;;;4972902;28;20523;-66
2023/10/03 10:01:47;;;;;;;7.00;6.30;;;24.80;95.00;;;;;;4972754;28;20457;-66
2023/10/03 10:04:16;;;;;;;6.60;6.00;;;24.90;95.00;;;;;;4972559;28;20561;-65
2023/10/03 10:06:50;;;;;;;9.63;8.17;;;25.00;95.00;;;;;;4972526;28;20456;-66
2023/10/03 10:09:30;;;;;;;7.77;7.00;;;25.10;94.70;;;;;;4972842;28;20526;-65
2023/10/03 10:12:14;;;;;;;9.90;6.67;;;25.10;93.60;;;;;;4972763;28;20444;-65
2023/10/03 10:15:13;;;;;;;8.03;7.10;;;25.10;93.80;;;;;;4972144;28;20475;-65
2023/10/03 10:17:45;;;;;;;6.70;6.13;;;25.20;93.60;;;;;;4972642;28;20459;-66
2023/10/03 10:20:17;;;;;;;8.77;6.10;;;25.20;93.90;;;;;;4972461;28;20452;-65
2023/10/03 10:23:17;;;;;;;8.80;6.97;;;25.20;93.80;;;;;;4972530;28;20455;-65
2023/10/03 10:25:51;;;;;;;7.97;6.90;;;25.10;93.50;;;;;;4972544;28;20450;-65
2023/10/03 10:28:26;;;;;;;7.10;6.40;;;25.00;93.00;;;;;;4972439;28;21487;-65
2023/10/03 10:31:24;;;;;;;8.63;7.43;;;25.00;93.40;;;;;;4956806;28;20446;-65
2023/10/03 10:34:23;;;;;;;6.47;5.87;;;25.00;93.90;;;;;;4972131;28;20476;-66
2023/10/03 10:36:56;;;;;;;7.47;6.77;;;25.00;94.00;;;;;;4972304;28;20438;-65
2023/10/03 10:39:24;;;;;;;7.63;6.93;;;24.90;93.60;;;;;;4972174;28;20477;-65
2023/10/03 10:42:09;;;;;;;7.60;6.90;;;24.80;93.40;;;;;;4972417;28;20455;-65
2023/10/03 10:44:39;;;;;;;6.43;5.90;;;24.80;93.70;;;;;;4971901;28;20480;-65
2023/10/03 10:47:07;;;;;;;9.13;7.00;;;24.80;93.60;;;;;;4972089;28;20445;-65
2023/10/03 10:49:56;;;;;;;7.83;7.07;;;24.80;93.70;;;;;;4972177;28;20458;-66
2023/10/03 10:52:23;;;;;;;8.07;7.27;;;24.70;93.40;;;;;;4972269;28;20454;-65
2023/10/03 10:54:50;;;;;;;7.30;6.60;;;24.70;93.70;;;;;;4955822;28;20465;-65
2023/10/03 10:57:18;;;;;;;7.70;6.33;;;24.80;94.00;;;;;;4972145;28;20441;-66
2023/10/03 10:59:45;;;;;;;7.70;6.93;;;24.70;93.60;;;;;;4971466;28;20482;-65
2023/10/03 11:02:18;;;;;;;7.83;7.10;;;24.70;93.70;;;;;;4971668;28;21006;-65
2023/10/03 11:04:48;;;;;;;10.00;7.37;;;24.80;93.80;;;;;;4971740;28;20546;-65
2023/10/03 11:07:21;;;;;;;7.57;6.57;;;24.80;93.60;;;;;;4972243;28;20473;-65
2023/10/03 11:09:48;;;;;;;7.80;6.20;;;24.80;93.60;;;;;;4972020;28;20454;-66
2023/10/03 11:12:23;;;;;;;7.20;6.50;;;24.80;94.00;;;;;;4971962;28;20457;-66
2023/10/03 11:14:50;;;;;;;7.93;7.17;;;24.80;93.90;;;;;;4955536;28;20477;-65
2023/10/03 11:17:18;;;;;;;8.20;7.40;;;24.80;93.70;;;;;;4971939;28;20449;-65
2023/10/03 11:19:46;;;;;;;8.67;7.90;;;24.80;94.00;;;;;;4971938;28;20553;-66
2023/10/03 11:22:13;;;;;;;7.10;6.50;;;24.80;93.90;;;;;;4971740;28;20450;-66
2023/10/03 11:24:42;;;;;;;8.73;7.87;;;24.80;94.30;;;;;;4971299;28;21017;-65
2023/10/03 11:27:09;;;;;;;7.53;6.80;;;24.80;94.30;;;;;;4971286;28;20449;-65
2023/10/03 11:29:43;;;;;;;8.03;7.30;;;24.90;93.90;;;;;;4971695;28;20967;-66
2023/10/03 11:32:30;;;;;;;7.87;6.50;;;24.90;94.00;;;;;;4971732;28;20536;-66
2023/10/03 11:34:58;;;;;;;8.20;6.97;;;25.00;94.40;;;;;;4956345;28;20493;-66
2023/10/03 11:37:44;;;;;;;8.60;7.70;;;25.10;94.50;;;;;;4971558;28;20446;-65
2023/10/03 11:40:14;;;;;;;9.80;8.13;;;25.20;93.80;;;;;;4971804;28;20469;-66
2023/10/03 11:42:45;;;;;;;8.43;7.33;;;25.10;93.40;;;;;;4971618;28;20533;-65
2023/10/03 11:45:18;;;;;;;8.33;7.53;;;25.20;93.60;;;;;;4971112;28;20506;-65
2023/10/03 11:48:06;;;;;;;7.57;6.87;;;25.30;93.90;;;;;;4971433;28;20489;-66
2023/10/03 11:50:34;;;;;;;9.30;7.80;;;25.50;93.20;;;;;;4971325;28;20454;-66
2023/10/03 11:53:01;;;;;;;6.43;5.83;;;25.70;93.30;;;;;;4971745;28;20482;-64
2023/10/03 11:55:31;;;;;;;8.10;7.50;;;25.80;93.00;;;;;;4971365;28;20464;-65
2023/10/03 11:57:58;;;;;;;7.60;6.90;;;26.00;93.10;;;;;;4971509;28;20508;-65
2023/10/03 12:00:25;;;;;;;8.13;7.30;;;26.10;92.60;;;;;;4971537;28;20448;-65
2023/10/03 12:02:55;;;;;;;6.97;6.37;;;26.20;92.90;;;;;;4971369;28;20530;-65
2023/10/03 12:05:22;;;;;;;7.27;6.67;;;26.30;92.30;;;;;;4971302;28;20465;-64
2023/10/03 12:07:50;;;;;;;9.10;6.67;;;26.40;92.00;;;;;;4971366;28;20483;-66
2023/10/03 12:10:18;;;;;;;7.13;6.53;;;26.40;92.50;;;;;;4971460;28;20444;-65
2023/10/03 12:12:46;;;;;;;7.93;7.33;;;26.50;92.10;;;;;;4973509;28;20548;-66
2023/10/03 12:15:13;;;;;;;7.33;6.63;;;26.50;91.90;;;;;;4974336;28;20476;-65
2023/10/03 12:17:41;;;;;;;6.90;6.40;;;26.40;91.50;;;;;;4974628;28;20449;-64
2023/10/03 12:20:12;;;;;;;7.67;6.83;;;26.30;91.60;;;;;;4974909;28;20474;-65
2023/10/03 12:22:41;;;;;;;6.77;6.17;;;26.20;91.90;;;;;;4974514;28;21020;-65
2023/10/03 12:25:10;;;;;;;8.00;7.20;;;26.10;91.60;;;;;;4974386;28;20502;-65
2023/10/03 12:27:38;;;;;;;9.23;6.73;;;25.90;92.10;;;;;;4974343;28;20984;-65
2023/10/03 12:30:09;;;;;;;8.67;7.30;;;25.80;92.00;;;;;;4974646;28;20537;-65
2023/10/03 12:32:38;;;;;;;7.73;6.33;;;25.70;92.30;;;;;;4974450;28;20454;-65
2023/10/03 12:35:06;;;;;;;8.20;6.97;;;25.70;92.60;;;;;;4974481;28;20475;-66
2023/10/03 12:37:35;;;;;;;6.87;6.20;;;25.60;92.10;;;;;;4974282;28;20894;-65
2023/10/03 12:40:04;;;;;;;7.93;6.40;;;25.60;92.90;;;;;;4974332;28;20451;-65
2023/10/03 12:42:32;;;;;;;6.90;6.27;;;25.70;92.50;;;;;;4974444;28;20455;-65
2023/10/03 12:45:03;;;;;;;10.23;7.43;;;25.70;92.60;;;;;;4973982;28;21042;-65